Aviation Digital Data Service (ADDS)

Output produced by METARs form (1247 UTC 21 February 2018)
found at http://www.aviationweather.gov/adds/metars/
 
TAF KTCM 201303Z 2013/2119 VRB06KT 9999 FEW050 SCT150 QNH3019INS 
     BECMG 2018/2019 14006KT 9999 BKN030 610305 QNH3017INS 
     BECMG 2020/2021 03009KT 9000 -SHSN BKN010 620108 QNH3019INS 
     BECMG 2103/2104 03009KT 9999 NSW BKN040 QNH3024INS 
     BECMG 2117/2118 17009KT 9999 FEW050 QNH3025INS TX03/2022Z TNM03/2014Z
       
KTEB 201226Z 2012/2118 22006KT 2SM BR OVC004 WS020/23035KT 
     TEMPO 2013/2014 1SM BR 
     FM201400 21005KT 3SM BR BKN006 
     FM201600 21006KT 6SM BR SCT006 BKN015 
     FM201800 22010KT P6SM SCT015 SCT025 BKN250 
     FM202300 21005KT P6SM SCT015 BKN250 
     FM210300 VRB03KT 3SM BR BKN007 
     FM210500 VRB03KT 1/2SM FG BKN004 
     FM211300 21006KT 2SM BR SCT005 BKN015 
     FM211500 22009KT P6SM SCT015 SCT040
       
TAF AMD KTIK 201510Z 2015/2116 33015G20KT 8000 SHRA BR OVC008 QNH2970INS 
     TEMPO 2015/2017 33020G35KT 6000 -TSRA OVC008CB 
     BECMG 2016/2017 34012G18KT 8000 -FZRA BKN010 OVC040 690001 640102 QNH2977INS 
     BECMG 2017/2018 35015G25KT 8000 FZDZ BKN010 OVC050 660001 640102 QNH2985INS 
     BECMG 2023/2024 36012G18KT 9999 NSW SCT040 QNH3000INS 
     BECMG 2105/2106 02010G15KT 9999 FEW050 QNH3012INS 
     BECMG 2113/2114 02012G18KT 9999 SCT100 QNH3030INS TX02/2015Z TNM01/2110Z
       
KTPA 201502Z 2015/2118 12008KT P6SM SCT040 BKN110 
     FM201600 13009KT P6SM SCT060 
     FM202100 16007KT P6SM BKN050 
     FM210200 11005KT P6SM SCT050 
     FM210900 10004KT P6SM SCT015 
     FM211500 12007KT P6SM SCT025
       
KTUP 211243Z 2113/2212 16010G15KT P6SM OVC008 
     FM211500 21013KT P6SM VCSH OVC010 
     TEMPO 2118/2122 3SM -SHRA BR OVC005 
     FM220000 04006KT 3SM TSRA OVC005CB